createdAt,value
2019-02-05T00:00:03.648Z,0.00
2019-02-05T00:01:03.653Z,0.00
2019-02-05T00:02:03.614Z,0.00
2019-02-05T00:03:03.617Z,0.00
2019-02-05T00:04:03.591Z,0.00
2019-02-05T00:05:03.586Z,0.00
2019-02-05T00:06:03.605Z,0.00
2019-02-05T00:07:03.566Z,0.00
2019-02-05T00:08:03.564Z,0.00
2019-02-05T00:09:03.543Z,0.00
2019-02-05T00:10:03.546Z,0.00
2019-02-05T00:11:03.514Z,0.00
2019-02-05T00:12:03.531Z,0.00
2019-02-05T00:13:03.498Z,0.00
2019-02-05T00:14:03.482Z,0.00
2019-02-05T00:15:03.490Z,0.00
2019-02-05T00:16:03.593Z,0.00
2019-02-05T00:17:03.455Z,0.00
2019-02-05T00:18:03.442Z,0.00
2019-02-05T00:19:03.429Z,0.00
2019-02-05T00:20:03.429Z,0.00
2019-02-05T00:21:03.428Z,0.00
2019-02-05T00:22:03.398Z,0.00
2019-02-05T00:23:03.396Z,0.00
2019-02-05T00:24:03.370Z,0.00
2019-02-05T00:25:03.365Z,0.00
2019-02-05T00:26:06.296Z,0.00
2019-02-05T00:27:03.370Z,0.00
2019-02-05T00:28:03.328Z,0.00
2019-02-05T00:29:03.317Z,0.00
2019-02-05T00:30:03.354Z,0.00
2019-02-05T00:31:03.471Z,0.00
2019-02-05T00:32:03.291Z,0.00
2019-02-05T00:33:03.276Z,0.00
2019-02-05T00:34:03.262Z,0.00
2019-02-05T00:35:03.307Z,0.00
2019-02-05T00:36:03.280Z,0.00
2019-02-05T00:37:03.243Z,0.00
2019-02-05T00:38:03.223Z,0.00
2019-02-05T00:39:03.247Z,0.00
2019-02-05T00:40:03.196Z,0.00
2019-02-05T00:41:03.223Z,0.00
2019-02-05T00:42:03.184Z,0.00
2019-02-05T00:43:03.170Z,0.00
2019-02-05T00:44:03.177Z,0.00
2019-02-05T00:45:03.142Z,0.00
2019-02-05T00:46:03.131Z,0.00
2019-02-05T00:47:03.157Z,0.00
2019-02-05T00:48:03.106Z,0.00
2019-02-05T00:49:03.105Z,0.00
2019-02-05T00:50:03.088Z,0.00
2019-02-05T00:51:03.086Z,0.00
2019-02-05T00:52:03.097Z,0.00
2019-02-05T00:53:03.098Z,0.00
2019-02-05T00:54:03.042Z,0.00
2019-02-05T00:55:03.060Z,0.00
2019-02-05T00:56:03.020Z,0.00
2019-02-05T00:57:03.037Z,0.00
2019-02-05T00:58:03.004Z,0.00
2019-02-05T00:59:02.988Z,0.00
2019-02-05T01:00:02.995Z,0.00
2019-02-05T01:01:02.978Z,0.00
2019-02-05T01:02:02.990Z,0.00
2019-02-05T01:03:02.974Z,0.00
2019-02-05T01:04:02.945Z,0.00
2019-02-05T01:05:02.936Z,0.00
2019-02-05T01:06:02.915Z,0.00
2019-02-05T01:07:02.927Z,0.00
2019-02-05T01:08:02.964Z,0.00
2019-02-05T01:09:02.895Z,0.00
2019-02-05T01:10:02.866Z,0.00
2019-02-05T01:11:02.858Z,0.00
2019-02-05T01:12:02.845Z,0.00
2019-02-05T01:13:02.845Z,0.00
2019-02-05T01:14:02.858Z,0.00
2019-02-05T01:15:02.815Z,0.00
2019-02-05T01:16:02.801Z,0.00
2019-02-05T01:17:02.794Z,0.00
2019-02-05T01:18:02.803Z,0.00
2019-02-05T01:19:02.775Z,0.00
2019-02-05T01:20:02.768Z,0.00
2019-02-05T01:21:02.748Z,0.00
2019-02-05T01:22:02.736Z,0.00
2019-02-05T01:23:02.749Z,0.00
2019-02-05T01:24:02.716Z,0.00
2019-02-05T01:25:02.705Z,0.00
2019-02-05T01:26:02.705Z,0.00
2019-02-05T01:27:02.681Z,0.00
2019-02-05T01:28:02.692Z,0.00
2019-02-05T01:29:02.662Z,0.00
2019-02-05T01:30:02.651Z,0.00
2019-02-05T01:31:04.441Z,0.00
2019-02-05T01:32:02.629Z,0.00
2019-02-05T01:33:02.664Z,0.00
2019-02-05T01:34:02.606Z,0.00
2019-02-05T01:35:02.603Z,0.00
2019-02-05T01:36:02.583Z,0.00
2019-02-05T01:37:02.586Z,0.00
2019-02-05T01:38:02.579Z,0.00
2019-02-05T01:39:02.770Z,0.00
2019-02-05T01:40:02.543Z,0.00
2019-02-05T01:41:02.534Z,0.00
2019-02-05T01:42:02.522Z,0.00
2019-02-05T01:43:02.510Z,0.00
2019-02-05T01:44:02.512Z,0.00
2019-02-05T01:45:02.512Z,0.00
2019-02-05T01:46:02.476Z,0.00
2019-02-05T01:47:02.468Z,0.00
2019-02-05T01:48:02.452Z,0.00
2019-02-05T01:49:02.467Z,0.00
2019-02-05T01:50:02.454Z,0.00
2019-02-05T01:51:02.427Z,0.00
2019-02-05T01:52:02.412Z,0.00
2019-02-05T01:53:02.415Z,0.00
2019-02-05T01:54:02.389Z,0.00
2019-02-05T01:55:02.439Z,0.00
2019-02-05T01:56:02.379Z,0.00
2019-02-05T01:57:02.354Z,0.00
2019-02-05T01:58:02.347Z,0.00
2019-02-05T01:59:02.332Z,0.00
2019-02-05T02:00:02.350Z,0.00
2019-02-05T02:01:02.321Z,0.00
2019-02-05T02:02:02.308Z,0.00
2019-02-05T02:03:02.291Z,0.00
2019-02-05T02:04:02.442Z,0.00
2019-02-05T02:05:02.282Z,0.00
2019-02-05T02:06:02.263Z,0.00
2019-02-05T02:07:02.248Z,0.00
2019-02-05T02:08:02.235Z,0.00
2019-02-05T02:09:02.240Z,0.00
2019-02-05T02:10:02.238Z,0.00
2019-02-05T02:11:02.207Z,0.00
2019-02-05T02:12:02.206Z,0.00
2019-02-05T02:13:02.184Z,0.00
2019-02-05T02:14:02.171Z,0.00
2019-02-05T02:15:02.205Z,0.00
2019-02-05T02:16:02.149Z,0.00
2019-02-05T02:17:02.137Z,0.00
2019-02-05T02:18:02.143Z,0.00
2019-02-05T02:19:02.115Z,0.00
2019-02-05T02:20:02.320Z,0.00
2019-02-05T02:21:02.096Z,0.00
2019-02-05T02:22:02.094Z,0.00
2019-02-05T02:23:02.079Z,0.00
2019-02-05T02:24:02.065Z,0.00
2019-02-05T02:25:02.055Z,0.00
2019-02-05T02:26:02.062Z,0.00
2019-02-05T02:27:02.038Z,0.00
2019-02-05T02:28:02.022Z,0.00
2019-02-05T02:29:02.021Z,0.00
2019-02-05T02:30:02.001Z,0.00
2019-02-05T02:31:02.010Z,0.00
2019-02-05T02:32:01.973Z,0.00
2019-02-05T02:33:01.964Z,0.00
2019-02-05T02:34:01.958Z,0.00
2019-02-05T02:35:02.017Z,0.00
2019-02-05T02:36:01.976Z,0.00
2019-02-05T02:37:01.919Z,0.00
2019-02-05T02:38:01.912Z,0.00
2019-02-05T02:39:01.918Z,0.00
2019-02-05T02:40:01.890Z,0.00
2019-02-05T02:41:01.886Z,0.00
2019-02-05T02:42:01.869Z,0.00
2019-02-05T02:43:01.876Z,0.00
2019-02-05T02:44:01.877Z,0.00
2019-02-05T02:45:01.866Z,0.00
2019-02-05T02:46:01.821Z,0.00
2019-02-05T02:47:01.837Z,0.00
2019-02-05T02:48:01.814Z,0.00
2019-02-05T02:49:01.791Z,0.00
2019-02-05T02:50:01.779Z,0.00
2019-02-05T02:51:01.788Z,0.00
2019-02-05T02:52:01.769Z,0.00
2019-02-05T02:53:01.770Z,0.00
2019-02-05T02:54:01.752Z,0.00
2019-02-05T02:55:01.753Z,0.00
2019-02-05T02:56:01.711Z,0.00
2019-02-05T02:57:04.931Z,0.00
2019-02-05T02:58:01.728Z,0.00
2019-02-05T02:59:01.696Z,0.00
2019-02-05T03:00:01.671Z,0.00
2019-02-05T03:01:01.666Z,0.00
2019-02-05T03:02:01.647Z,0.00
2019-02-05T03:03:01.636Z,0.00
2019-02-05T03:04:01.649Z,0.00
2019-02-05T03:05:01.662Z,0.00
2019-02-05T03:06:01.608Z,0.00
2019-02-05T03:07:01.613Z,0.00
2019-02-05T03:08:01.582Z,0.00
2019-02-05T03:09:01.571Z,0.00
2019-02-05T03:10:01.562Z,0.00
2019-02-05T03:11:01.592Z,0.00
2019-02-05T03:12:01.578Z,0.00
2019-02-05T03:13:01.526Z,0.00
2019-02-05T03:14:01.517Z,0.00
2019-02-05T03:15:01.533Z,0.00
2019-02-05T03:16:01.496Z,0.00
2019-02-05T03:17:01.538Z,0.00
2019-02-05T03:18:01.474Z,0.00
2019-02-05T03:19:01.462Z,0.00
2019-02-05T03:20:01.459Z,0.00
2019-02-05T03:21:01.443Z,0.00
2019-02-05T03:22:01.458Z,0.00
2019-02-05T03:23:01.428Z,0.00
2019-02-05T03:24:01.414Z,0.00
2019-02-05T03:25:01.549Z,0.00
2019-02-05T03:26:01.384Z,0.00
2019-02-05T03:27:01.405Z,0.00
2019-02-05T03:28:01.368Z,0.00
2019-02-05T03:29:01.362Z,0.00
2019-02-05T03:30:01.355Z,0.00
2019-02-05T03:31:08.137Z,0.00
2019-02-05T03:32:08.319Z,0.00
2019-02-05T03:33:01.350Z,0.00
2019-02-05T03:34:01.385Z,0.00
2019-02-05T03:35:01.351Z,0.00
2019-02-05T03:36:01.302Z,0.00
2019-02-05T03:37:01.292Z,0.00
2019-02-05T03:38:01.315Z,0.00
2019-02-05T03:39:01.293Z,0.00
2019-02-05T03:40:01.283Z,0.00
2019-02-05T03:41:01.238Z,0.00
2019-02-05T03:42:01.241Z,0.00
2019-02-05T03:43:01.294Z,0.00
2019-02-05T03:44:01.234Z,0.00
2019-02-05T03:45:01.260Z,0.00
2019-02-05T03:46:01.216Z,0.00
2019-02-05T03:47:01.244Z,0.00
2019-02-05T03:48:01.167Z,0.00
2019-02-05T03:49:01.192Z,0.00
2019-02-05T03:50:01.134Z,0.00
2019-02-05T03:51:01.135Z,0.00
2019-02-05T03:52:01.163Z,0.00
2019-02-05T03:53:01.119Z,0.00
2019-02-05T03:54:01.084Z,0.00
2019-02-05T03:55:01.091Z,0.00
2019-02-05T03:56:01.081Z,0.00
2019-02-05T03:57:01.376Z,0.00
2019-02-05T03:58:01.071Z,0.00
2019-02-05T03:59:01.054Z,0.00
2019-02-05T04:00:01.184Z,0.00
2019-02-05T04:01:01.035Z,0.00
2019-02-05T04:02:01.042Z,0.00
2019-02-05T04:03:01.069Z,0.00
2019-02-05T04:04:01.069Z,0.00
2019-02-05T04:05:01.006Z,0.00
2019-02-05T04:06:00.988Z,0.00
2019-02-05T04:07:00.984Z,0.00
2019-02-05T04:08:00.991Z,0.00
2019-02-05T04:09:00.977Z,0.00
2019-02-05T04:10:00.941Z,0.00
2019-02-05T04:11:00.944Z,0.00
2019-02-05T04:12:01.614Z,0.00
2019-02-05T04:13:00.935Z,0.00
2019-02-05T04:14:00.961Z,0.00
2019-02-05T04:15:00.902Z,0.00
2019-02-05T04:16:00.893Z,0.00
2019-02-05T04:17:00.885Z,0.00
2019-02-05T04:18:00.880Z,0.00
2019-02-05T04:19:00.851Z,0.00
2019-02-05T04:20:00.902Z,0.00
2019-02-05T04:21:00.813Z,0.00
2019-02-05T04:22:00.804Z,0.00
2019-02-05T04:23:00.800Z,0.00
2019-02-05T04:24:00.855Z,0.00
2019-02-05T04:25:00.841Z,0.00
2019-02-05T04:26:00.778Z,0.00
2019-02-05T04:27:00.752Z,0.00
2019-02-05T04:28:00.764Z,0.00
2019-02-05T04:29:00.769Z,0.00
2019-02-05T04:30:00.791Z,0.00
2019-02-05T04:31:00.733Z,0.00
2019-02-05T04:32:00.725Z,0.00
2019-02-05T04:33:00.714Z,0.00
2019-02-05T04:34:00.709Z,0.00
2019-02-05T04:35:00.816Z,0.00
2019-02-05T04:36:00.680Z,0.00
2019-02-05T04:37:00.645Z,0.00
2019-02-05T04:38:00.647Z,0.00
2019-02-05T04:39:00.637Z,0.00
2019-02-05T04:40:00.687Z,0.00
2019-02-05T04:41:00.605Z,0.00
2019-02-05T04:42:00.610Z,0.00
2019-02-05T04:43:00.588Z,0.00
2019-02-05T04:44:00.589Z,0.00
2019-02-05T04:45:00.619Z,0.00
2019-02-05T04:46:00.599Z,0.00
2019-02-05T04:47:00.552Z,0.00
2019-02-05T04:48:00.544Z,0.00
2019-02-05T04:49:00.533Z,0.00
2019-02-05T04:50:00.628Z,0.00
2019-02-05T04:51:00.484Z,0.00
2019-02-05T04:52:00.472Z,0.00
2019-02-05T04:53:00.473Z,0.00
2019-02-05T04:54:00.436Z,0.00
2019-02-05T04:55:00.475Z,0.00
2019-02-05T04:56:00.438Z,0.00
2019-02-05T04:57:00.804Z,0.00
2019-02-05T04:58:01.565Z,0.00
2019-02-05T04:59:00.418Z,0.00
2019-02-05T05:00:00.498Z,0.00
2019-02-05T05:01:00.404Z,0.00
2019-02-05T05:02:00.360Z,0.00
2019-02-05T05:03:00.356Z,0.00
2019-02-05T05:04:00.375Z,0.00
2019-02-05T05:05:00.370Z,0.00
2019-02-05T05:06:00.356Z,0.00
2019-02-05T05:07:00.304Z,0.00
2019-02-05T05:08:00.298Z,0.00
2019-02-05T05:09:00.285Z,0.00
2019-02-05T05:10:00.494Z,0.00
2019-02-05T05:11:00.271Z,0.00
2019-02-05T05:12:00.294Z,0.00
2019-02-05T05:13:00.239Z,0.00
2019-02-05T05:14:00.279Z,0.00
2019-02-05T05:15:00.390Z,0.00
2019-02-05T05:16:00.273Z,0.00
2019-02-05T05:17:00.199Z,0.00
2019-02-05T05:18:00.215Z,0.00
2019-02-05T05:19:00.200Z,0.00
2019-02-05T05:20:00.478Z,0.00
2019-02-05T05:21:00.214Z,0.00
2019-02-05T05:22:00.359Z,0.00
2019-02-05T05:23:00.153Z,0.00
2019-02-05T05:24:00.116Z,0.00
2019-02-05T05:25:00.335Z,0.00
2019-02-05T05:26:00.141Z,0.00
2019-02-05T05:27:00.098Z,0.00
2019-02-05T05:28:09.655Z,0.00
2019-02-05T05:29:01.100Z,0.00
2019-02-05T05:30:00.096Z,0.00
2019-02-05T05:31:00.047Z,0.00
2019-02-05T05:32:00.081Z,0.00
2019-02-05T05:33:00.027Z,0.00
2019-02-05T05:34:00.056Z,0.00
2019-02-05T05:35:00.009Z,0.00
2019-02-05T05:36:00.011Z,0.00
2019-02-05T05:37:00.030Z,0.00
2019-02-05T05:37:59.970Z,0.00
2019-02-05T05:39:00.002Z,0.00
2019-02-05T05:39:59.945Z,0.00
2019-02-05T05:40:59.937Z,0.00
2019-02-05T05:41:59.976Z,0.00
2019-02-05T05:42:59.922Z,0.00
2019-02-05T05:43:59.906Z,0.00
2019-02-05T05:44:59.895Z,0.00
2019-02-05T05:45:59.863Z,0.00
2019-02-05T05:46:59.889Z,0.00
2019-02-05T05:47:59.858Z,0.00
2019-02-05T05:48:59.865Z,0.00
2019-02-05T05:49:59.849Z,0.00
2019-02-05T05:50:59.868Z,0.00
2019-02-05T05:51:59.886Z,0.00
2019-02-05T05:52:59.842Z,0.00
2019-02-05T05:53:59.822Z,0.00
2019-02-05T05:54:59.821Z,0.00
2019-02-05T05:55:59.772Z,0.00
2019-02-05T05:56:59.798Z,0.00
2019-02-05T05:57:59.913Z,0.00
2019-02-05T05:58:59.734Z,0.00
2019-02-05T05:59:59.732Z,0.00
2019-02-05T06:00:59.729Z,0.00
2019-02-05T06:01:59.769Z,0.00
2019-02-05T06:02:59.707Z,0.00
2019-02-05T06:03:59.718Z,0.00
2019-02-05T06:04:59.698Z,0.00
2019-02-05T06:05:59.659Z,0.00
2019-02-05T06:06:59.728Z,0.00
2019-02-05T06:07:59.639Z,0.00
2019-02-05T06:08:59.633Z,0.00
2019-02-05T06:09:59.624Z,0.00
2019-02-05T06:10:59.749Z,0.00
2019-02-05T06:11:59.610Z,0.00
2019-02-05T06:12:59.708Z,0.00
2019-02-05T06:13:59.598Z,0.00
2019-02-05T06:14:59.574Z,0.00
2019-02-05T06:15:59.587Z,0.00
2019-02-05T06:16:59.581Z,0.00
2019-02-05T06:17:59.605Z,0.00
2019-02-05T06:18:59.530Z,0.00
2019-02-05T06:19:59.508Z,0.00
2019-02-05T06:20:59.537Z,0.00
2019-02-05T06:21:59.590Z,0.00
2019-02-05T06:22:59.512Z,0.00
2019-02-05T06:23:59.844Z,0.00
2019-02-05T06:24:59.514Z,0.00
2019-02-05T06:25:59.495Z,0.00
2019-02-05T06:26:59.479Z,0.00
2019-02-05T06:27:59.430Z,0.00
2019-02-05T06:28:59.453Z,0.00
2019-02-05T06:29:59.482Z,0.00
2019-02-05T06:30:59.412Z,0.00
2019-02-05T06:31:59.408Z,0.00
2019-02-05T06:32:59.412Z,0.00
2019-02-05T06:33:59.415Z,0.00
2019-02-05T06:34:59.366Z,0.00
2019-02-05T06:35:59.367Z,0.00
2019-02-05T06:36:59.339Z,0.00
2019-02-05T06:37:59.346Z,0.00
2019-02-05T06:38:59.317Z,0.00
2019-02-05T06:39:59.298Z,0.00
2019-02-05T06:40:59.332Z,0.00
2019-02-05T06:41:59.294Z,0.00
2019-02-05T06:42:59.267Z,0.00
2019-02-05T06:43:59.281Z,0.00
2019-02-05T06:44:59.261Z,0.00
2019-02-05T06:45:59.257Z,4.00
2019-02-05T06:46:59.247Z,4.00
2019-02-05T06:47:59.208Z,0.00
2019-02-05T06:48:59.204Z,0.00
2019-02-05T06:49:59.220Z,4.00
2019-02-05T06:50:59.207Z,4.00
2019-02-05T06:51:59.196Z,4.00
2019-02-05T06:52:59.163Z,4.00
2019-02-05T06:53:59.197Z,4.00
2019-02-05T06:54:59.149Z,4.00
2019-02-05T06:55:59.119Z,4.00
2019-02-05T06:56:59.131Z,4.00
2019-02-05T06:57:59.103Z,8.00
2019-02-05T06:58:59.141Z,8.00
2019-02-05T06:59:59.103Z,8.00
2019-02-05T07:00:59.093Z,8.00
2019-02-05T07:01:59.068Z,8.00
2019-02-05T07:02:59.048Z,12.00
2019-02-05T07:03:59.085Z,8.00
2019-02-05T07:04:59.103Z,12.00
2019-02-05T07:05:59.041Z,8.00
2019-02-05T07:06:59.039Z,12.00
2019-02-05T07:07:59.016Z,12.00
2019-02-05T07:08:58.998Z,16.00
2019-02-05T07:09:58.989Z,16.00
2019-02-05T07:10:59.048Z,16.00
2019-02-05T07:11:58.939Z,20.00
2019-02-05T07:12:59.057Z,20.00
2019-02-05T07:13:58.931Z,20.00
2019-02-05T07:14:58.952Z,24.00
2019-02-05T07:15:58.951Z,28.00
2019-02-05T07:16:58.899Z,28.00
2019-02-05T07:17:58.901Z,32.00
2019-02-05T07:18:58.878Z,24.00
2019-02-05T07:19:58.897Z,28.00
2019-02-05T07:20:58.856Z,24.00
2019-02-05T07:21:58.855Z,28.00
2019-02-05T07:22:58.860Z,28.00
2019-02-05T07:23:58.821Z,32.00
2019-02-05T07:24:58.848Z,28.00
2019-02-05T07:25:58.832Z,32.00
2019-02-05T07:26:58.778Z,36.00
2019-02-05T07:27:58.797Z,36.00
2019-02-05T07:29:02.048Z,44.00
2019-02-05T07:29:58.780Z,44.00
2019-02-05T07:30:58.806Z,40.00
2019-02-05T07:31:58.726Z,48.00
2019-02-05T07:32:58.724Z,48.00
2019-02-05T07:33:58.721Z,52.00
2019-02-05T07:34:58.701Z,44.00
2019-02-05T07:35:58.715Z,52.00
2019-02-05T07:36:58.655Z,52.00
2019-02-05T07:37:58.670Z,52.00
2019-02-05T07:38:58.656Z,56.00
2019-02-05T07:39:58.632Z,60.00
2019-02-05T07:40:58.673Z,60.00
2019-02-05T07:41:58.618Z,68.00
2019-02-05T07:42:58.590Z,68.00
2019-02-05T07:43:58.596Z,68.00
2019-02-05T07:44:58.581Z,76.00
2019-02-05T07:45:58.640Z,84.00
2019-02-05T07:46:58.550Z,76.00
2019-02-05T07:47:58.551Z,80.00
2019-02-05T07:48:58.553Z,84.00
2019-02-05T07:49:58.509Z,92.00
2019-02-05T07:50:58.802Z,92.00
2019-02-05T07:51:58.515Z,92.00
2019-02-05T07:52:58.503Z,92.00
2019-02-05T07:53:58.601Z,88.00
2019-02-05T07:54:58.477Z,92.00
2019-02-05T07:55:58.467Z,92.00
2019-02-05T07:56:58.467Z,104.00
2019-02-05T07:57:58.451Z,100.00
2019-02-05T07:59:09.615Z,100.00
2019-02-05T07:59:59.427Z,96.00
2019-02-05T08:00:58.587Z,92.00
2019-02-05T08:01:58.459Z,100.00
2019-02-05T08:02:58.429Z,112.00
2019-02-05T08:03:58.385Z,116.00
2019-02-05T08:05:00.690Z,116.00
2019-02-05T08:05:58.379Z,108.00
2019-02-05T08:06:58.441Z,128.00
2019-02-05T08:07:58.484Z,124.00
2019-02-05T08:08:58.373Z,140.00
2019-02-05T08:09:58.335Z,152.00
2019-02-05T08:10:58.328Z,140.00
2019-02-05T08:11:58.333Z,140.00
2019-02-05T08:12:58.377Z,148.00
2019-02-05T08:13:58.280Z,164.00
2019-02-05T08:14:58.289Z,160.00
2019-02-05T08:15:58.273Z,176.00
2019-02-05T08:16:58.290Z,184.00
2019-02-05T08:17:58.231Z,188.00
2019-02-05T08:18:58.235Z,184.00
2019-02-05T08:19:58.185Z,176.00
2019-02-05T08:20:58.211Z,196.00
2019-02-05T08:21:58.190Z,200.00
2019-02-05T08:22:58.203Z,192.00
2019-02-05T08:23:58.249Z,196.00
2019-02-05T08:24:58.183Z,216.00
2019-02-05T08:25:58.145Z,216.00
2019-02-05T08:26:58.157Z,200.00
2019-02-05T08:27:58.135Z,200.00
2019-02-05T08:28:58.112Z,200.00
2019-02-05T08:29:58.102Z,228.00
2019-02-05T08:30:58.081Z,236.00
2019-02-05T08:31:58.082Z,244.00
2019-02-05T08:32:58.086Z,252.00
2019-02-05T08:33:58.049Z,272.00
2019-02-05T08:34:58.038Z,280.00
2019-02-05T08:35:58.051Z,252.00
2019-02-05T08:36:58.085Z,252.00
2019-02-05T08:37:58.049Z,268.00
2019-02-05T08:38:57.998Z,256.00
2019-02-05T08:39:57.986Z,248.00
2019-02-05T08:40:57.956Z,248.00
2019-02-05T08:41:57.985Z,280.00
2019-02-05T08:42:57.986Z,252.00
2019-02-05T08:43:57.948Z,260.00
2019-02-05T08:44:57.912Z,260.00
2019-02-05T08:45:57.903Z,284.00
2019-02-05T08:46:57.912Z,264.00
2019-02-05T08:47:57.955Z,280.00
2019-02-05T08:48:57.928Z,276.00
2019-02-05T08:49:57.883Z,316.00
2019-02-05T08:50:57.856Z,280.00
2019-02-05T08:51:57.947Z,288.00
2019-02-05T08:52:57.885Z,312.00
2019-02-05T08:53:57.830Z,312.00
2019-02-05T08:54:57.822Z,316.00
2019-02-05T08:55:57.821Z,300.00
2019-02-05T08:56:57.834Z,308.00
2019-02-05T08:57:57.806Z,324.00
2019-02-05T08:58:57.788Z,316.00
2019-02-05T08:59:57.764Z,292.00
2019-02-05T09:00:57.762Z,300.00
2019-02-05T09:01:57.746Z,320.00
2019-02-05T09:02:57.770Z,308.00
2019-02-05T09:03:57.783Z,324.00
2019-02-05T09:04:57.721Z,320.00
2019-02-05T09:05:57.736Z,304.00
2019-02-05T09:06:57.700Z,304.00
2019-02-05T09:07:57.681Z,336.00
2019-02-05T09:08:57.693Z,300.00
2019-02-05T09:09:57.699Z,324.00
2019-02-05T09:10:57.642Z,336.00
2019-02-05T09:11:57.633Z,320.00
2019-02-05T09:12:57.635Z,332.00
2019-02-05T09:13:57.643Z,356.00
2019-02-05T09:14:57.608Z,320.00
2019-02-05T09:15:57.601Z,360.00
2019-02-05T09:16:57.577Z,372.00
2019-02-05T09:17:57.599Z,348.00
2019-02-05T09:18:57.566Z,364.00
2019-02-05T09:19:57.564Z,472.00
2019-02-05T09:20:57.539Z,356.00
2019-02-05T09:21:57.565Z,372.00
2019-02-05T09:22:57.494Z,376.00
2019-02-05T09:23:57.547Z,412.00
2019-02-05T09:24:57.492Z,392.00
2019-02-05T09:25:57.483Z,404.00
2019-02-05T09:26:57.505Z,364.00
2019-02-05T09:27:57.452Z,384.00
2019-02-05T09:28:57.453Z,364.00
2019-02-05T09:29:57.422Z,400.00
2019-02-05T09:30:57.418Z,464.00
2019-02-05T09:31:57.413Z,436.00
2019-02-05T09:32:57.444Z,364.00
2019-02-05T09:33:57.397Z,488.00
2019-02-05T09:34:57.366Z,432.00
2019-02-05T09:35:57.346Z,452.00
2019-02-05T09:36:57.553Z,408.00
2019-02-05T09:37:58.000Z,420.00
2019-02-05T09:38:57.351Z,428.00
2019-02-05T09:39:57.311Z,392.00
2019-02-05T09:40:57.296Z,356.00
2019-02-05T09:41:57.288Z,436.00
2019-02-05T09:42:57.306Z,392.00
2019-02-05T09:43:57.316Z,396.00
2019-02-05T09:44:57.250Z,372.00
2019-02-05T09:45:57.260Z,404.00
2019-02-05T09:46:57.233Z,408.00
2019-02-05T09:47:57.294Z,380.00
2019-02-05T09:48:57.213Z,388.00
2019-02-05T09:49:57.322Z,404.00
2019-02-05T09:50:57.216Z,372.00
2019-02-05T09:51:57.216Z,396.00
2019-02-05T09:52:57.195Z,368.00
2019-02-05T09:53:57.205Z,376.00
2019-02-05T09:54:57.195Z,396.00
2019-02-05T09:55:57.132Z,408.00
2019-02-05T09:56:57.152Z,388.00
2019-02-05T09:57:57.152Z,412.00
2019-02-05T09:58:57.122Z,420.00
2019-02-05T09:59:57.121Z,392.00
2019-02-05T10:00:59.697Z,432.00
2019-02-05T10:01:57.069Z,480.00
2019-02-05T10:02:57.050Z,572.00
2019-02-05T10:03:57.052Z,560.00
2019-02-05T10:04:57.043Z,584.00
2019-02-05T10:05:57.086Z,552.00
2019-02-05T10:06:57.036Z,668.00
2019-02-05T10:07:57.010Z,700.00
2019-02-05T10:08:56.994Z,716.00
2019-02-05T10:09:57.023Z,728.00
2019-02-05T10:10:56.992Z,816.00
2019-02-05T10:11:56.951Z,804.00
2019-02-05T10:12:56.943Z,812.00
2019-02-05T10:13:56.932Z,788.00
2019-02-05T10:14:56.947Z,828.00
2019-02-05T10:15:57.172Z,784.00
2019-02-05T10:16:56.900Z,780.00
2019-02-05T10:17:56.893Z,808.00
2019-02-05T10:18:56.876Z,832.00
2019-02-05T10:19:56.867Z,820.00
2019-02-05T10:20:56.888Z,812.00
2019-02-05T10:21:56.876Z,820.00
2019-02-05T10:22:56.850Z,884.00
2019-02-05T10:23:56.830Z,888.00
2019-02-05T10:24:56.858Z,880.00
2019-02-05T10:25:56.843Z,836.00
2019-02-05T10:26:56.811Z,696.00
2019-02-05T10:27:56.785Z,652.00
2019-02-05T10:28:56.892Z,716.00
2019-02-05T10:29:59.528Z,748.00
2019-02-05T10:30:56.789Z,728.00
2019-02-05T10:31:56.760Z,724.00
2019-02-05T10:32:56.743Z,660.00
2019-02-05T10:33:56.717Z,620.00
2019-02-05T10:34:56.706Z,632.00
2019-02-05T10:35:56.743Z,672.00
2019-02-05T10:36:56.719Z,748.00
2019-02-05T10:37:56.691Z,800.00
2019-02-05T10:38:56.674Z,776.00
2019-02-05T10:39:56.651Z,768.00
2019-02-05T10:40:56.635Z,736.00
2019-02-05T10:41:56.666Z,948.00
2019-02-05T10:42:56.615Z,684.00
2019-02-05T10:43:56.632Z,556.00
2019-02-05T10:44:56.608Z,580.00
2019-02-05T10:45:56.600Z,628.00
2019-02-05T10:46:56.626Z,624.00
2019-02-05T10:47:56.583Z,684.00
2019-02-05T10:48:57.290Z,672.00
2019-02-05T10:49:56.552Z,692.00
2019-02-05T10:50:56.532Z,608.00
2019-02-05T10:51:56.545Z,568.00
2019-02-05T10:52:56.558Z,564.00
2019-02-05T10:53:56.516Z,636.00
2019-02-05T10:54:56.530Z,692.00
2019-02-05T10:55:56.471Z,680.00
2019-02-05T10:56:56.461Z,652.00
2019-02-05T10:57:56.478Z,652.00
2019-02-05T10:58:56.457Z,656.00
2019-02-05T11:00:07.275Z,696.00
2019-02-05T11:00:57.436Z,712.00
2019-02-05T11:01:56.429Z,664.00
2019-02-05T11:02:56.444Z,728.00
2019-02-05T11:03:56.412Z,684.00
2019-02-05T11:04:56.376Z,656.00
2019-02-05T11:05:56.388Z,628.00
2019-02-05T11:06:56.445Z,684.00
2019-02-05T11:07:56.346Z,648.00
2019-02-05T11:08:56.367Z,696.00
2019-02-05T11:09:56.328Z,608.00
2019-02-05T11:10:56.359Z,572.00
2019-02-05T11:11:56.305Z,576.00
2019-02-05T11:12:56.402Z,656.00
2019-02-05T11:13:56.285Z,704.00
2019-02-05T11:14:56.289Z,668.00
2019-02-05T11:15:56.257Z,624.00
2019-02-05T11:16:56.286Z,576.00
2019-02-05T11:17:56.248Z,568.00
2019-02-05T11:18:56.281Z,592.00
2019-02-05T11:19:56.252Z,612.00
2019-02-05T11:20:56.248Z,640.00
2019-02-05T11:21:56.187Z,612.00
2019-02-05T11:22:56.195Z,580.00
2019-02-05T11:23:56.190Z,604.00
2019-02-05T11:24:56.152Z,564.00
2019-02-05T11:25:56.163Z,552.00
2019-02-05T11:26:56.143Z,536.00
2019-02-05T11:27:56.184Z,532.00
2019-02-05T11:28:56.119Z,532.00
2019-02-05T11:29:56.100Z,556.00
2019-02-05T11:30:56.128Z,572.00
2019-02-05T11:31:56.164Z,580.00
2019-02-05T11:32:56.116Z,556.00
2019-02-05T11:33:56.129Z,576.00
2019-02-05T11:34:56.064Z,572.00
2019-02-05T11:35:56.080Z,604.00
2019-02-05T11:36:56.053Z,592.00
2019-02-05T11:37:56.092Z,612.00
2019-02-05T11:38:56.231Z,616.00
2019-02-05T11:39:56.011Z,612.00
2019-02-05T11:40:56.030Z,600.00
2019-02-05T11:41:56.015Z,572.00
2019-02-05T11:42:56.075Z,620.00
2019-02-05T11:43:55.972Z,584.00
2019-02-05T11:44:55.989Z,556.00
2019-02-05T11:45:55.923Z,636.00
2019-02-05T11:46:55.915Z,612.00
2019-02-05T11:47:55.901Z,592.00
2019-02-05T11:48:55.962Z,604.00
2019-02-05T11:49:55.921Z,552.00
2019-02-05T11:50:55.890Z,540.00
2019-02-05T11:51:55.884Z,536.00
2019-02-05T11:52:55.867Z,552.00
2019-02-05T11:53:55.885Z,576.00
2019-02-05T11:54:55.872Z,596.00
2019-02-05T11:55:55.834Z,600.00
2019-02-05T11:56:55.862Z,620.00
2019-02-05T11:57:55.835Z,640.00
2019-02-05T11:58:55.813Z,608.00
2019-02-05T11:59:55.821Z,580.00
2019-02-05T12:00:55.777Z,604.00
2019-02-05T12:01:55.767Z,616.00
2019-02-05T12:02:55.786Z,620.00
2019-02-05T12:03:55.734Z,608.00
2019-02-05T12:04:55.795Z,600.00
2019-02-05T12:05:55.815Z,612.00
2019-02-05T12:06:55.740Z,608.00
2019-02-05T12:07:55.740Z,604.00
2019-02-05T12:08:55.674Z,620.00
2019-02-05T12:09:55.713Z,576.00
2019-02-05T12:10:55.808Z,588.00
2019-02-05T12:11:55.662Z,608.00
2019-02-05T12:12:55.634Z,660.00
2019-02-05T12:13:55.638Z,644.00
2019-02-05T12:14:55.625Z,644.00
2019-02-05T12:15:55.648Z,656.00
2019-02-05T12:16:55.607Z,664.00
2019-02-05T12:17:55.624Z,612.00
2019-02-05T12:18:55.578Z,548.00
2019-02-05T12:19:55.847Z,600.00
2019-02-05T12:20:55.606Z,692.00
2019-02-05T12:21:55.555Z,692.00
2019-02-05T12:22:55.531Z,596.00
2019-02-05T12:23:55.532Z,536.00
2019-02-05T12:24:55.542Z,556.00
2019-02-05T12:25:55.564Z,560.00
2019-02-05T12:26:55.503Z,528.00
2019-02-05T12:27:55.516Z,532.00
2019-02-05T12:28:55.472Z,652.00
2019-02-05T12:29:55.461Z,656.00
2019-02-05T12:30:55.730Z,760.00
2019-02-05T12:31:55.436Z,668.00
2019-02-05T12:32:55.438Z,604.00
2019-02-05T12:33:55.424Z,644.00
2019-02-05T12:34:55.407Z,676.00
2019-02-05T12:35:55.400Z,632.00
2019-02-05T12:36:55.411Z,676.00
2019-02-05T12:37:55.371Z,732.00
2019-02-05T12:38:55.366Z,732.00
2019-02-05T12:39:55.324Z,668.00
2019-02-05T12:40:55.342Z,592.00
2019-02-05T12:41:55.368Z,528.00
2019-02-05T12:42:55.318Z,552.00
2019-02-05T12:43:55.304Z,560.00
2019-02-05T12:44:55.295Z,572.00
2019-02-05T12:45:55.289Z,600.00
2019-02-05T12:46:55.304Z,716.00
2019-02-05T12:47:55.318Z,640.00
2019-02-05T12:48:55.265Z,632.00
2019-02-05T12:49:55.255Z,664.00
2019-02-05T12:50:55.257Z,664.00
2019-02-05T12:51:55.223Z,680.00
2019-02-05T12:52:55.247Z,740.00
2019-02-05T12:53:55.200Z,824.00
2019-02-05T12:54:55.186Z,768.00
2019-02-05T12:55:55.157Z,736.00